Time;durP1;ratioP1;P1;durP2;ratioP2;P2;SDS_P1;SDS_P2;PMS_P1;PMS_P2;Temp;Humidity;BMP_temperature;BMP_pressure;BME280_temperature;BME280_humidity;BME280_pressure;Samples;Min_cycle;Max_cycle;Signal;HPM_P1;HPM_P2
2022/07/21 00:01:21;;;;;;;8.60;4.12;;;;;;;14.80;100.00;100508.95;1781968;79;21520;-73
2022/07/21 00:03:47;;;;;;;9.65;4.30;;;;;;;14.79;100.00;100518.17;1781981;79;20880;-75
2022/07/21 00:06:14;;;;;;;8.48;4.55;;;;;;;14.77;100.00;100518.48;1789732;78;21078;-75
2022/07/21 00:08:40;;;;;;;10.43;4.35;;;;;;;14.75;100.00;100520.11;1820047;78;21070;-74
2022/07/21 00:11:06;;;;;;;12.10;4.05;;;;;;;14.74;100.00;100521.77;1820384;78;20983;-76
2022/07/21 00:13:33;;;;;;;9.33;4.28;;;;;;;14.72;100.00;100514.47;1820439;78;21114;-76
2022/07/21 00:15:59;;;;;;;9.58;3.83;;;;;;;14.71;100.00;100516.93;1819865;78;21539;-73
2022/07/21 00:18:28;;;;;;;8.30;4.25;;;;;;;14.68;100.00;100523.73;1820563;78;20947;-76
2022/07/21 00:20:56;;;;;;;21.77;4.58;;;;;;;14.65;100.00;100523.52;1820176;78;21134;-74
2022/07/21 00:23:24;;;;;;;12.47;4.15;;;;;;;14.64;100.00;100521.87;1820166;78;20932;-75
2022/07/21 00:25:51;;;;;;;8.60;4.00;;;;;;;14.60;100.00;100518.13;1820733;78;21057;-75
2022/07/21 00:28:18;;;;;;;7.97;3.92;;;;;;;14.59;100.00;100523.28;1820328;78;21018;-76
2022/07/21 00:30:45;;;;;;;9.28;4.00;;;;;;;14.57;100.00;100529.56;1815305;78;20983;-74
2022/07/21 00:33:11;;;;;;;10.50;4.17;;;;;;;14.53;100.00;100522.00;1820803;78;21128;-74
2022/07/21 00:35:38;;;;;;;8.38;3.80;;;;;;;14.52;100.00;100519.56;1788605;78;21014;-75
2022/07/21 00:38:04;;;;;;;9.95;3.58;;;;;;;14.51;100.00;100519.28;1820551;78;21500;-75
2022/07/21 00:40:30;;;;;;;7.20;3.80;;;;;;;14.50;100.00;100521.72;1820602;78;21050;-76
2022/07/21 00:42:58;;;;;;;10.75;4.00;;;;;;;14.47;100.00;100517.70;1820611;78;21014;-76
2022/07/21 00:45:24;;;;;;;7.58;3.83;;;;;;;14.48;100.00;100515.23;1820650;78;21983;-74
2022/07/21 00:47:50;;;;;;;7.95;3.62;;;;;;;14.45;100.00;100513.10;1822857;78;21042;-75
2022/07/21 00:50:20;;;;;;;10.32;4.10;;;;;;;14.43;100.00;100512.58;1796268;78;20991;-81
2022/07/21 00:52:48;;;;;;;10.80;3.75;;;;;;;14.42;100.00;100510.97;1824148;78;20964;-81
2022/07/21 00:55:19;;;;;;;7.17;3.70;;;;;;;14.42;100.00;100508.26;1823993;78;20979;-75
2022/07/21 00:57:45;;;;;;;8.40;4.15;;;;;;;14.37;100.00;100508.30;1796304;78;21575;-76
2022/07/21 01:00:19;;;;;;;7.70;3.92;;;;;;;14.35;100.00;100511.84;1823837;78;21014;-75
2022/07/21 01:02:46;;;;;;;8.55;3.75;;;;;;;14.32;100.00;100505.64;1824255;78;20963;-75
2022/07/21 01:05:14;;;;;;;11.10;3.83;;;;;;;14.27;100.00;100509.22;1824133;78;20971;-76
2022/07/21 01:07:47;;;;;;;8.50;3.80;;;;;;;14.27;100.00;100512.48;1823660;78;21538;-75
2022/07/21 01:10:15;;;;;;;9.38;3.60;;;;;;;14.25;100.00;100509.24;1790696;80;21158;-76
2022/07/21 01:12:42;;;;;;;7.72;3.55;;;;;;;14.23;100.00;100510.88;1790647;79;21022;-75
2022/07/21 01:15:10;;;;;;;19.30;3.67;;;;;;;14.23;100.00;100510.88;1790820;80;21039;-75
2022/07/21 01:17:37;;;;;;;7.03;3.55;;;;;;;14.20;100.00;100507.93;1790696;80;21054;-76
2022/07/21 01:20:11;;;;;;;5.17;3.12;;;;;;;14.17;100.00;100511.22;1790455;80;21518;-75
2022/07/21 01:22:41;;;;;;;8.78;3.45;;;;;;;14.14;100.00;100507.72;1790873;80;21117;-76
2022/07/21 01:25:08;;;;;;;6.58;3.62;;;;;;;14.08;100.00;100505.05;1790461;80;20987;-76
2022/07/21 01:27:34;;;;;;;9.90;3.60;;;;;;;14.07;100.00;100503.45;1790644;80;21121;-75
2022/07/21 01:30:01;;;;;;;6.83;3.60;;;;;;;14.05;100.00;100508.33;1790791;80;21070;-74
2022/07/21 01:32:27;;;;;;;11.83;3.40;;;;;;;14.00;100.00;100515.17;1790639;80;21567;-75
2022/07/21 01:34:53;;;;;;;11.57;3.87;;;;;;;13.98;100.00;100505.70;1790590;80;21056;-75
2022/07/21 01:37:23;;;;;;;13.68;3.75;;;;;;;13.98;100.00;100511.94;1790456;80;21589;-75
2022/07/21 01:42:36;;;;;;;10.50;3.33;;;;;;;13.94;100.00;100502.77;1790375;80;20995;-76
2022/07/21 01:45:04;;;;;;;5.50;3.10;;;;;;;13.91;100.00;100517.41;1790548;80;21129;-76
2022/07/21 01:47:31;;;;;;;7.08;3.55;;;;;;;13.88;100.00;100514.71;1770524;80;21152;-76
2022/07/21 01:49:57;;;;;;;5.33;3.25;;;;;;;13.89;100.00;100512.28;1752963;80;21006;-76
2022/07/21 01:52:24;;;;;;;9.28;3.25;;;;;;;13.87;100.00;100507.69;1752947;81;21069;-76
2022/07/21 01:54:51;;;;;;;10.05;3.37;;;;;;;13.85;100.00;100506.63;1752994;81;21018;-76
2022/07/21 01:57:17;;;;;;;12.10;3.67;;;;;;;13.84;100.00;100505.55;1752662;81;21076;-75
2022/07/21 01:59:44;;;;;;;6.53;3.20;;;;;;;13.80;100.00;100508.02;1752963;81;22064;-76
2022/07/21 02:02:10;;;;;;;5.60;3.05;;;;;;;13.81;100.00;100502.05;1752477;81;21577;-76
2022/07/21 02:04:37;;;;;;;6.35;3.20;;;;;;;13.80;100.00;100500.45;1753104;81;21025;-80
2022/07/21 02:07:03;;;;;;;9.00;3.45;;;;;;;13.82;100.00;100505.02;1768540;80;20987;-76
2022/07/21 02:09:29;;;;;;;11.30;3.55;;;;;;;13.84;100.00;100508.26;1785227;80;20928;-76
2022/07/21 02:11:56;;;;;;;13.08;4.25;;;;;;;13.83;100.00;100506.65;1785088;80;21120;-75
2022/07/21 02:14:22;;;;;;;10.80;4.03;;;;;;;13.81;100.00;100506.92;1784945;80;21516;-77
2022/07/21 02:16:48;;;;;;;8.28;3.98;;;;;;;13.80;100.00;100508.02;1785171;80;21035;-76
2022/07/21 02:19:14;;;;;;;11.85;4.15;;;;;;;13.82;100.00;100506.36;1785265;80;21020;-76
2022/07/21 02:21:40;;;;;;;14.53;4.65;;;;;;;13.79;100.00;100505.58;1785173;80;20976;-76
2022/07/21 02:24:07;;;;;;;8.40;4.17;;;;;;;13.82;100.00;100506.36;1785217;80;20980;-75
2022/07/21 02:26:33;;;;;;;9.23;4.15;;;;;;;13.84;100.00;100508.26;1785160;80;21484;-76
2022/07/21 02:28:59;;;;;;;8.53;4.37;;;;;;;13.86;100.00;100510.95;1784976;80;20992;-73
2022/07/21 02:31:25;;;;;;;14.68;4.37;;;;;;;13.93;100.00;100497.06;1785154;80;20995;-75
2022/07/21 02:33:51;;;;;;;9.13;4.05;;;;;;;13.96;100.00;100499.20;1785324;80;21031;-75
2022/07/21 02:36:17;;;;;;;9.70;4.05;;;;;;;14.00;100.00;100496.20;1785240;80;21377;-75
2022/07/21 02:38:43;;;;;;;7.83;4.03;;;;;;;14.09;100.00;100492.34;1785200;80;20935;-76
2022/07/21 02:41:09;;;;;;;17.20;4.37;;;;;;;14.16;100.00;100494.15;1785191;79;20896;-76
2022/07/21 02:43:35;;;;;;;11.25;4.35;;;;;;;14.21;100.00;100498.73;1785142;80;20848;-75
2022/07/21 02:46:01;;;;;;;8.63;3.45;;;;;;;14.24;100.00;100499.51;1785120;80;21034;-76
2022/07/21 02:48:28;;;;;;;13.25;4.53;;;;;;;14.32;100.00;100505.64;1781510;78;20939;-73
2022/07/21 02:50:54;;;;;;;11.33;4.08;;;;;;;14.41;100.00;100512.08;1820309;78;21117;-76
2022/07/21 02:53:22;;;;;;;11.93;4.05;;;;;;;14.49;100.00;100515.48;1820336;78;21082;-77
2022/07/21 02:55:51;;;;;;;11.48;4.00;;;;;;;14.56;100.00;100519.78;1820329;78;20956;-76
2022/07/21 02:58:22;;;;;;;10.20;4.05;;;;;;;14.63;100.00;100521.63;1820304;78;21082;-76
2022/07/21 03:00:53;;;;;;;11.90;4.10;;;;;;;14.71;100.00;100518.28;1750921;81;21078;-76
2022/07/21 03:03:21;;;;;;;12.53;4.85;;;;;;;14.77;100.00;100519.84;1721019;83;20998;-74
2022/07/21 03:05:48;;;;;;;9.08;4.15;;;;;;;14.82;100.00;100525.18;1720878;83;21153;-73
2022/07/21 03:08:14;;;;;;;17.17;4.47;;;;;;;14.90;100.00;100522.39;1721149;83;21034;-74
2022/07/21 03:10:42;;;;;;;10.68;4.25;;;;;;;14.93;100.00;100521.25;1695686;83;21104;-76
2022/07/21 03:13:08;;;;;;;13.50;4.62;;;;;;;15.02;100.00;100519.25;1721405;83;21152;-76
2022/07/21 03:15:35;;;;;;;10.10;3.85;;;;;;;15.09;100.00;100515.62;1721030;83;22692;-75
2022/07/21 03:18:01;;;;;;;10.23;4.00;;;;;;;15.18;100.00;100505.75;1721139;83;21140;-74
2022/07/21 03:20:30;;;;;;;10.50;3.87;;;;;;;15.27;100.00;100508.06;1721224;83;21038;-76
2022/07/21 03:22:57;;;;;;;5.87;3.45;;;;;;;15.47;100.00;100506.96;1721026;83;21037;-76
2022/07/21 03:25:24;;;;;;;12.95;3.83;;;;;;;16.10;100.00;100504.33;1721216;83;21162;-76
2022/07/21 03:27:51;;;;;;;12.98;4.10;;;;;;;16.67;100.00;100498.08;1721063;83;21029;-76
2022/07/21 03:30:19;;;;;;;7.12;3.37;;;;;;;17.19;100.00;100488.31;1721192;83;21511;-76
2022/07/21 03:32:46;;;;;;;8.23;3.30;;;;;;;17.83;100.00;100487.64;1721112;83;21456;-76
2022/07/21 03:35:13;;;;;;;9.70;3.50;;;;;;;18.49;100.00;100490.53;1721296;83;21018;-77
2022/07/21 03:37:46;;;;;;;7.30;3.90;;;;;;;19.14;100.00;100487.58;1720967;83;21100;-77
2022/07/21 03:40:16;;;;;;;10.88;3.62;;;;;;;19.85;100.00;100489.98;1643698;87;21831;-76
2022/07/21 03:42:42;;;;;;;6.80;3.58;;;;;;;20.25;100.00;100493.04;1643986;87;21078;-74
2022/07/21 03:45:11;;;;;;;10.53;3.50;;;;;;;20.41;100.00;100484.51;1644027;87;21106;-76
2022/07/21 03:47:37;;;;;;;11.80;3.67;;;;;;;20.62;100.00;100484.63;1644896;86;21114;-77
2022/07/21 03:50:06;;;;;;;9.73;3.27;;;;;;;21.11;100.00;100487.69;1646517;87;21096;-77
2022/07/21 03:52:32;;;;;;;13.58;3.37;;;;;;;21.53;100.00;100483.05;1646395;87;22374;-75
2022/07/21 03:55:14;;;;;;;8.80;3.65;;;;;;;22.07;100.00;100489.03;1646421;87;21145;-74
2022/07/21 03:57:54;;;;;;;8.73;3.17;;;;;;;22.57;100.00;100497.59;1634117;87;21002;-74
2022/07/21 04:00:33;;;;;;;11.40;3.58;;;;;;;22.89;100.00;100490.94;1628914;87;21042;-77
2022/07/21 04:03:00;;;;;;;7.33;3.62;;;;;;;23.38;100.00;100490.04;1620236;88;21119;-77
2022/07/21 04:05:28;;;;;;;6.22;3.20;;;;;;;23.80;100.00;100490.48;1619924;88;21036;-77
2022/07/21 04:07:54;;;;;;;8.98;3.58;;;;;;;24.22;100.00;100494.13;1620164;88;21109;-76
2022/07/21 04:10:26;;;;;;;7.15;3.83;;;;;;;24.60;100.00;100484.45;1620288;88;21084;-81
2022/07/21 04:12:53;;;;;;;10.98;3.83;;;;;;;24.77;100.00;100489.59;1619996;88;21140;-76
2022/07/21 04:15:19;;;;;;;9.80;3.60;;;;;;;25.14;100.00;100483.14;1619982;88;21218;-73
2022/07/21 04:17:47;;;;;;;7.72;3.22;;;;;;;25.54;100.00;100478.45;1648976;85;21579;-76
2022/07/21 04:20:14;;;;;;;4.50;3.10;;;;;;;25.83;100.00;100480.63;1676489;85;21107;-77
2022/07/21 04:22:42;;;;;;;6.17;3.40;;;;;;;26.21;100.00;100486.42;1676568;85;21638;-77
2022/07/21 04:25:09;;;;;;;7.12;3.42;;;;;;;26.53;100.00;100490.30;1676570;85;21072;-74
2022/07/21 04:27:38;;;;;;;7.17;3.42;;;;;;;26.80;100.00;100490.54;1676521;85;21268;-77
2022/07/21 04:30:08;;;;;;;8.33;3.20;;;;;;;26.85;100.00;100490.20;1648169;86;21098;-78
2022/07/21 04:32:33;;;;;;;7.70;3.20;;;;;;;27.13;100.00;100491.19;1648278;86;21596;-78
2022/07/21 04:35:00;;;;;;;8.60;3.27;;;;;;;27.29;100.00;100487.46;1621760;87;20920;-78
2022/07/21 04:37:27;;;;;;;6.30;2.95;;;;;;;27.57;100.00;100478.13;1603095;87;21090;-79
2022/07/21 04:39:53;;;;;;;5.20;3.22;;;;;;;27.65;100.00;100480.39;1592753;89;21128;-78
2022/07/21 04:42:19;;;;;;;6.28;3.17;;;;;;;27.92;99.15;100473.38;1592670;89;20949;-77
2022/07/21 04:44:45;;;;;;;7.10;3.25;;;;;;;28.16;97.29;100474.19;1592854;89;21073;-79
2022/07/21 04:47:12;;;;;;;5.65;2.67;;;;;;;28.42;97.24;100482.16;1591979;89;21128;-79
2022/07/21 04:49:38;;;;;;;3.80;2.95;;;;;;;28.90;91.69;100477.91;1579515;90;21265;-80
2022/07/21 04:52:04;;;;;;;4.20;2.62;;;;;;;29.37;84.89;100483.91;1579340;90;21203;-79
2022/07/21 04:54:30;;;;;;;9.23;3.10;;;;;;;29.37;84.89;100483.91;1579283;90;21112;-79
2022/07/21 04:56:56;;;;;;;8.75;2.70;;;;;;;29.49;83.56;100479.98;1579217;90;21135;-80
2022/07/21 04:59:22;;;;;;;5.97;2.95;;;;;;;29.71;79.24;100483.67;1595265;88;20903;-79
2022/07/21 05:01:48;;;;;;;3.85;2.37;;;;;;;29.81;79.25;100482.09;1621538;88;20966;-79
2022/07/21 05:04:14;;;;;;;8.33;3.00;;;;;;;30.18;78.60;100490.09;1621526;88;21053;-79
2022/07/21 05:06:41;;;;;;;4.50;3.00;;;;;;;30.35;73.26;100487.12;1606605;88;21196;-80
2022/07/21 05:09:07;;;;;;;4.00;2.75;;;;;;;30.70;72.32;100492.45;1610149;88;21085;-79
2022/07/21 05:11:33;;;;;;;4.30;2.50;;;;;;;30.58;70.55;100487.31;1621146;88;21043;-79
2022/07/21 05:13:59;;;;;;;7.47;3.15;;;;;;;30.80;67.61;100492.26;1621654;88;21014;-76
2022/07/21 05:16:25;;;;;;;6.67;2.70;;;;;;;30.96;65.11;100476.72;1621291;88;21243;-80
2022/07/21 05:18:51;;;;;;;8.23;2.60;;;;;;;30.95;63.71;100475.14;1621379;88;21041;-77
2022/07/21 05:21:17;;;;;;;6.78;2.75;;;;;;;31.09;63.59;100481.27;1621207;88;21120;-79
2022/07/21 05:23:45;;;;;;;10.82;2.60;;;;;;;31.24;61.68;100476.44;1621444;88;20927;-77
2022/07/21 05:26:12;;;;;;;6.78;2.80;;;;;;;31.36;60.03;100478.02;1600218;88;21053;-78
2022/07/21 05:28:39;;;;;;;4.25;2.60;;;;;;;31.47;59.71;100475.94;1579456;88;21739;-79
2022/07/21 05:31:05;;;;;;;6.90;2.80;;;;;;;31.64;58.43;100470.87;1621380;88;21093;-78
2022/07/21 05:33:31;;;;;;;7.20;2.58;;;;;;;31.71;57.35;100472.03;1682240;82;21070;-78
2022/07/21 06:20:53;;;;;;;4.30;2.08;;;;;;;35.22;42.18;100450.06;1804535;78;21082;-80
2022/07/21 06:23:19;;;;;;;8.63;2.15;;;;;;;35.55;42.30;100457.95;1808932;78;21500;-77
2022/07/21 06:25:45;;;;;;;4.47;2.20;;;;;;;35.61;40.27;100449.83;1775504;80;21007;-79
2022/07/21 06:28:11;;;;;;;3.08;2.05;;;;;;;35.61;40.27;100449.83;1775467;80;21141;-80
2022/07/21 06:30:39;;;;;;;4.50;1.90;;;;;;;35.30;38.57;100450.67;1775401;80;20999;-80
2022/07/21 06:33:05;;;;;;;9.08;3.00;;;;;;;35.07;39.74;100449.58;1775730;80;21067;-80
2022/07/21 06:35:32;;;;;;;2.65;1.85;;;;;;;35.34;39.56;100445.19;1775699;80;21555;-81
2022/07/21 06:37:58;;;;;;;4.60;1.82;;;;;;;35.47;39.11;100446.70;1775298;80;21019;-78
2022/07/21 06:40:24;;;;;;;5.50;1.90;;;;;;;35.61;38.84;100447.80;1775713;80;21890;-81
2022/07/21 06:42:51;;;;;;;3.02;1.90;;;;;;;36.00;39.50;100443.87;1775784;80;20999;-80
2022/07/21 06:45:17;;;;;;;11.03;2.12;;;;;;;36.36;37.90;100440.37;1750114;80;21008;-88
2022/07/21 06:47:43;;;;;;;3.35;1.90;;;;;;;36.27;35.59;100433.20;1775549;80;21586;-82
2022/07/21 06:50:10;;;;;;;2.02;1.82;;;;;;;35.49;35.99;100445.04;1775518;80;21027;-83
2022/07/21 06:52:37;;;;;;;5.67;1.80;;;;;;;35.29;36.23;100442.10;1775780;80;21959;-82
2022/07/21 06:55:06;;;;;;;4.72;1.87;;;;;;;35.34;35.83;100439.58;1775683;80;21566;-82
2022/07/21 06:57:35;;;;;;;3.40;1.67;;;;;;;35.34;35.02;100441.59;1802683;79;21008;-81
2022/07/21 07:00:04;;;;;;;2.85;1.50;;;;;;;35.41;35.31;100439.41;1809341;78;21500;-80
2022/07/21 07:06:12;;;;;;;2.67;1.50;;;;;;;35.61;34.50;100432.38;1809022;78;21505;-80
2022/07/21 07:08:39;;;;;;;8.68;2.42;;;;;;;36.01;33.97;100438.46;1809289;78;21058;-79
2022/07/21 07:11:06;;;;;;;3.83;1.60;;;;;;;36.35;34.74;100422.56;1809050;78;21053;-81
2022/07/21 07:13:32;;;;;;;4.00;2.00;;;;;;;36.58;34.53;100432.17;1809364;78;21027;-80
2022/07/21 07:15:58;;;;;;;6.65;1.70;;;;;;;36.51;33.41;100429.55;1809528;78;20987;-82
2022/07/21 07:18:25;;;;;;;2.33;1.60;;;;;;;36.49;32.68;100429.20;1809249;78;21152;-82
2022/07/21 07:20:51;;;;;;;2.77;1.80;;;;;;;36.58;32.95;100432.17;1809041;78;20987;-80
2022/07/21 07:23:18;;;;;;;4.40;1.60;;;;;;;36.67;32.27;100429.35;1809195;78;21016;-83
2022/07/21 07:25:44;;;;;;;2.22;1.47;;;;;;;36.66;31.26;100434.19;1809387;78;21070;-81
2022/07/21 07:28:10;;;;;;;3.47;1.70;;;;;;;36.56;32.18;100434.66;1809423;78;21504;-82
2022/07/21 07:30:36;;;;;;;6.12;1.40;;;;;;;36.39;32.36;100433.09;1809242;78;21047;-83
2022/07/21 07:33:03;;;;;;;2.45;1.50;;;;;;;36.59;32.47;100442.20;1809166;78;21538;-82
2022/07/21 07:35:29;;;;;;;2.75;1.20;;;;;;;36.61;31.44;100429.10;1809289;78;21520;-82
2022/07/21 07:37:55;;;;;;;6.50;1.35;;;;;;;36.64;30.40;100430.23;1809340;78;20988;-82
2022/07/21 07:40:23;;;;;;;3.67;1.47;;;;;;;36.09;30.02;100418.83;1809317;78;20995;-81
2022/07/21 07:42:50;;;;;;;3.25;1.60;;;;;;;35.95;30.42;100428.38;1809362;78;21991;-81
2022/07/21 07:45:16;;;;;;;5.97;1.45;;;;;;;36.05;30.93;100423.75;1809130;78;21437;-82
2022/07/21 07:47:43;;;;;;;5.40;1.17;;;;;;;36.14;31.71;100433.73;1809162;78;21126;-80
2022/07/21 07:50:12;;;;;;;14.50;2.40;;;;;;;36.21;30.63;100420.13;1808840;78;21046;-82
2022/07/21 07:52:41;;;;;;;3.83;1.10;;;;;;;36.01;30.01;100417.42;1808867;78;21432;-83
2022/07/21 07:55:10;;;;;;;2.60;1.12;;;;;;;35.99;29.81;100407.24;1809195;78;21172;-83
2022/07/21 07:57:35;;;;;;;1.32;0.82;;;;;;;36.26;29.92;100421.00;1808419;78;21064;-83
2022/07/21 08:00:06;;;;;;;4.10;0.95;;;;;;;35.90;29.29;100406.46;1809033;78;21078;-83
2022/07/21 08:02:32;;;;;;;5.25;1.50;;;;;;;34.59;30.01;100425.68;1809128;78;21012;-82
2022/07/21 08:04:58;;;;;;;4.80;0.90;;;;;;;33.46;30.98;100434.07;1809116;78;20983;-84
2022/07/21 08:07:24;;;;;;;3.17;0.90;;;;;;;33.18;32.80;100426.28;1809334;78;21042;-82
2022/07/21 08:09:50;;;;;;;6.50;1.30;;;;;;;33.33;32.34;100435.87;1809188;78;20876;-81
2022/07/21 08:12:16;;;;;;;3.00;1.10;;;;;;;32.78;32.94;100434.91;1809256;78;21015;-82
2022/07/21 08:14:42;;;;;;;3.77;0.88;;;;;;;32.44;32.70;100439.80;1809256;78;21453;-83
2022/07/21 08:17:08;;;;;;;5.35;1.00;;;;;;;33.06;32.89;100436.58;1809387;78;21030;-84
2022/07/21 08:19:34;;;;;;;6.95;1.15;;;;;;;33.45;32.29;100438.88;1805471;78;21110;-82
2022/07/21 08:22:01;;;;;;;1.62;0.75;;;;;;;33.50;33.38;100431.22;1816453;78;21058;-86
2022/07/21 08:24:27;;;;;;;7.10;1.00;;;;;;;34.07;32.44;100425.59;1820219;78;21031;-85
2022/07/21 08:26:54;;;;;;;2.87;0.95;;;;;;;34.00;32.20;100433.27;1788480;78;20987;-83
2022/07/21 08:29:20;;;;;;;7.42;1.10;;;;;;;33.59;32.41;100432.33;1820251;78;21561;-84
2022/07/21 08:31:46;;;;;;;3.83;0.80;;;;;;;33.16;32.32;100426.51;1820532;78;21057;-81
2022/07/21 08:34:12;;;;;;;4.22;1.07;;;;;;;33.45;32.41;100428.30;1820392;78;21479;-81
2022/07/21 08:36:38;;;;;;;2.10;0.90;;;;;;;33.83;32.41;100421.97;1820721;78;20936;-83
2022/07/21 08:39:05;;;;;;;6.25;0.90;;;;;;;34.51;31.37;100417.23;1820274;78;21055;-83
2022/07/21 08:41:32;;;;;;;6.03;1.05;;;;;;;34.79;32.22;100412.48;1820634;78;21512;-81
2022/07/21 08:43:58;;;;;;;3.58;0.70;;;;;;;34.86;30.37;100414.37;1820128;78;21102;-80
2022/07/21 08:46:25;;;;;;;6.60;0.80;;;;;;;34.01;31.55;100419.48;1820301;78;21499;-81
2022/07/21 08:48:52;;;;;;;1.65;0.80;;;;;;;32.99;31.55;100420.72;1820240;78;22163;-82
2022/07/21 08:51:18;;;;;;;5.50;0.72;;;;;;;31.93;32.68;100422.55;1820125;78;20995;-82
2022/07/21 08:53:46;;;;;;;3.60;0.62;;;;;;;31.12;34.05;100429.53;1820532;78;21503;-81
2022/07/21 08:56:12;;;;;;;3.22;0.72;;;;;;;30.55;35.13;100421.54;1788696;78;21467;-82
2022/07/21 08:58:39;;;;;;;4.03;0.70;;;;;;;30.20;35.84;100423.73;1820272;78;20991;-83
2022/07/21 09:01:05;;;;;;;2.62;0.70;;;;;;;29.80;36.08;100420.78;1820508;78;21023;-81
2022/07/21 09:03:32;;;;;;;3.15;1.02;;;;;;;29.27;37.24;100423.61;1820748;78;20988;-80
2022/07/21 09:06:13;;;;;;;1.55;0.72;;;;;;;28.85;37.87;100430.52;1820287;78;20967;-80
2022/07/21 09:08:46;;;;;;;3.45;0.98;;;;;;;28.45;39.13;100423.95;1814212;78;21465;-81
2022/07/21 09:11:26;;;;;;;5.37;0.80;;;;;;;27.95;39.33;100418.00;1814503;78;21471;-81
2022/07/21 09:14:11;;;;;;;4.50;0.90;;;;;;;27.66;40.01;100418.29;1814104;78;21130;-80
2022/07/21 09:16:44;;;;;;;1.80;0.72;;;;;;;27.46;40.86;100419.06;1813956;78;21039;-81
2022/07/21 09:19:24;;;;;;;1.98;0.78;;;;;;;27.29;42.45;100419.06;1814191;78;21060;-81
2022/07/21 09:21:54;;;;;;;5.55;1.00;;;;;;;27.02;42.16;100418.32;1795530;78;21291;-83
2022/07/21 09:24:38;;;;;;;2.50;0.78;;;;;;;26.81;41.71;100411.93;1776020;80;21034;-86
2022/07/21 09:27:24;;;;;;;3.30;0.70;;;;;;;26.64;41.62;100411.09;1747160;79;21019;-81
2022/07/21 09:30:00;;;;;;;3.35;0.90;;;;;;;26.58;42.43;100412.00;1721430;82;22368;-80
2022/07/21 09:32:30;;;;;;;5.03;0.72;;;;;;;26.73;43.60;100408.27;1721737;82;21000;-78
2022/07/21 09:35:09;;;;;;;2.20;0.78;;;;;;;26.80;42.84;100405.41;1721671;81;21206;-79
2022/07/21 09:37:37;;;;;;;3.80;0.82;;;;;;;26.67;43.34;100417.27;1721598;81;21031;-81
2022/07/21 09:40:07;;;;;;;5.10;1.07;;;;;;;26.65;43.33;100401.06;1721506;82;21070;-81
2022/07/21 09:42:38;;;;;;;1.52;0.62;;;;;;;26.69;43.30;100401.89;1721838;82;21047;-80
2022/07/21 09:45:11;;;;;;;1.45;0.57;;;;;;;26.58;44.29;100398.19;1721590;82;21027;-82
2022/07/21 09:47:39;;;;;;;3.12;0.90;;;;;;;26.62;44.02;100396.84;1726532;81;21188;-83
2022/07/21 09:50:09;;;;;;;4.42;0.90;;;;;;;26.53;44.28;100401.26;1726188;81;21008;-82
2022/07/21 09:52:39;;;;;;;3.60;0.93;;;;;;;26.45;44.68;100403.70;1726484;81;20968;-82
2022/07/21 09:55:09;;;;;;;4.28;0.60;;;;;;;26.43;44.99;100397.73;1640694;87;21087;-81
2022/07/21 09:57:36;;;;;;;3.83;0.70;;;;;;;26.41;45.80;100394.55;1598284;89;21146;-81
2022/07/21 10:00:07;;;;;;;7.03;1.22;;;;;;;26.49;46.10;100392.92;1598299;89;21757;-81
2022/07/21 10:02:35;;;;;;;2.05;0.68;;;;;;;26.56;46.63;100389.48;1598005;89;21031;-81
2022/07/21 10:05:13;;;;;;;2.52;0.90;;;;;;;26.69;46.80;100391.43;1551123;89;21122;-81
2022/07/21 10:07:42;;;;;;;4.12;0.88;;;;;;;26.83;46.56;100383.92;1533439;93;21134;-81
2022/07/21 10:10:10;;;;;;;1.55;0.72;;;;;;;26.80;46.90;100387.44;1533392;93;21086;-80
2022/07/21 10:12:36;;;;;;;5.30;0.80;;;;;;;26.80;47.09;100391.58;1533268;92;21083;-81
2022/07/21 10:15:03;;;;;;;2.83;1.00;;;;;;;26.60;46.90;100393.67;1530231;93;21083;-80
2022/07/21 10:17:31;;;;;;;5.47;0.88;;;;;;;26.57;46.74;100384.75;1533295;93;21079;-82
2022/07/21 10:20:15;;;;;;;1.45;0.72;;;;;;;26.61;46.84;100385.59;1488086;94;21147;-81
2022/07/21 10:23:20;;;;;;;2.45;0.72;;;;;;;26.80;46.82;100380.52;1488092;94;21077;-82
2022/07/21 10:25:47;;;;;;;2.00;0.70;;;;;;;26.99;48.34;100380.35;1489618;95;21641;-82
2022/07/21 10:28:23;;;;;;;1.35;0.50;;;;;;;27.09;46.85;100378.31;1489897;95;21081;-81
2022/07/21 10:33:38;;;;;;;2.33;0.75;;;;;;;27.07;46.19;100379.27;1511702;93;21084;-86
2022/07/21 10:36:05;;;;;;;3.10;0.80;;;;;;;27.17;46.98;100374.46;1466496;97;21195;-81
2022/07/21 10:38:34;;;;;;;6.20;0.60;;;;;;;27.24;47.01;100365.47;1466427;96;21176;-82
2022/07/21 10:41:02;;;;;;;6.60;1.10;;;;;;;27.53;46.54;100364.35;1466440;97;21136;-82
2022/07/21 10:43:35;;;;;;;4.72;0.68;;;;;;;27.68;46.40;100364.72;1467368;97;21649;-83
2022/07/21 10:46:01;;;;;;;2.20;0.62;;;;;;;27.78;45.15;100368.75;1475145;97;21146;-82
2022/07/21 10:48:47;;;;;;;2.62;0.88;;;;;;;27.94;45.45;100362.37;1475259;96;21038;-83
2022/07/21 10:51:16;;;;;;;1.70;0.60;;;;;;;28.14;45.35;100364.30;1477079;96;21166;-82
2022/07/21 10:53:45;;;;;;;3.10;0.80;;;;;;;28.50;45.21;100363.17;1488315;96;21142;-82
2022/07/21 10:56:27;;;;;;;5.20;0.60;;;;;;;28.65;44.44;100352.95;1488400;96;22274;-83
2022/07/21 10:58:53;;;;;;;15.87;0.77;;;;;;;28.42;44.43;100365.13;1488026;94;21100;-82
2022/07/21 11:01:26;;;;;;;5.15;0.50;;;;;;;28.07;45.18;100355.36;1524934;92;21101;-81
2022/07/21 11:04:17;;;;;;;1.12;0.62;;;;;;;27.90;45.07;100366.30;1545177;92;21262;-80
2022/07/21 11:06:42;;;;;;;4.15;0.95;;;;;;;27.54;45.30;100358.45;1544804;92;21101;-82
2022/07/21 11:09:15;;;;;;;1.80;0.80;;;;;;;27.33;46.04;100355.48;1545140;92;22392;-82
2022/07/21 11:12:01;;;;;;;;;;;;;;;27.10;46.90;100360.53;1564934;89;21547;-81
2022/07/21 11:14:43;;;;;;;1.20;0.60;;;;;;;26.87;46.73;100359.86;1574093;90;20188;-82
2022/07/21 11:17:31;;;;;;;2.52;1.00;;;;;;;26.68;47.78;100362.99;1573503;91;21221;-82
2022/07/21 11:19:58;;;;;;;4.95;1.40;;;;;;;26.70;49.14;100352.33;1553360;92;21518;-81
2022/07/21 11:22:29;;;;;;;1.62;0.62;;;;;;;26.82;49.17;100358.20;1559933;90;21166;-80
2022/07/21 11:25:00;;;;;;;2.22;0.80;;;;;;;26.84;49.89;100353.70;1571908;90;21183;-83
2022/07/21 11:27:29;;;;;;;3.83;0.95;;;;;;;26.87;49.16;100357.09;1532930;92;21483;-81
2022/07/21 11:29:59;;;;;;;4.03;1.10;;;;;;;26.77;49.98;100353.03;1557353;89;21172;-82
2022/07/21 11:32:26;;;;;;;3.22;1.00;;;;;;;26.61;49.80;100352.41;1549886;92;21082;-82
2022/07/21 11:35:02;;;;;;;5.40;0.93;;;;;;;26.41;50.94;100348.35;1549899;92;21074;-82
2022/07/21 11:37:38;;;;;;;1.55;0.80;;;;;;;26.36;50.64;100349.29;1495617;96;21123;-83
2022/07/21 11:40:08;;;;;;;2.27;0.90;;;;;;;26.18;50.95;100361.47;1495660;96;21126;-82
2022/07/21 11:42:35;;;;;;;3.42;0.80;;;;;;;26.00;51.12;100357.02;1495535;96;22030;-81
2022/07/21 11:45:02;;;;;;;4.70;1.00;;;;;;;25.83;52.25;100357.75;1495483;96;21099;-82
2022/07/21 11:47:30;;;;;;;2.95;1.00;;;;;;;25.69;52.41;100358.86;1495703;96;21165;-81
2022/07/21 11:50:00;;;;;;;2.10;1.10;;;;;;;25.59;53.70;100351.20;1495504;96;21244;-82
2022/07/21 11:52:32;;;;;;;2.55;0.68;;;;;;;25.47;53.86;100356.88;1516414;94;21635;-81
2022/07/21 11:55:00;;;;;;;;;;;;;;;25.31;54.29;100356.99;1523634;94;21481;-81
2022/07/21 11:57:27;;;;;;;5.28;0.80;;;;;;;25.20;55.17;100358.16;1522441;93;20152;-81
2022/07/21 11:59:55;;;;;;;2.62;0.90;;;;;;;25.10;55.08;100355.39;1522679;94;21660;-81
2022/07/21 12:02:28;;;;;;;2.90;0.72;;;;;;;24.97;55.43;100356.69;1522851;93;21573;-81
2022/07/21 12:04:58;;;;;;;3.12;1.00;;;;;;;24.92;56.65;100365.27;1523254;93;21081;-81
2022/07/21 12:07:29;;;;;;;4.30;0.70;;;;;;;24.91;56.85;100364.48;1526570;94;21723;-81
2022/07/21 12:10:01;;;;;;;4.00;0.80;;;;;;;24.84;57.00;100364.31;1526333;94;21172;-81
2022/07/21 12:12:43;;;;;;;7.25;0.90;;;;;;;24.77;57.11;100362.80;1526238;93;21152;-80
2022/07/21 12:15:27;;;;;;;3.72;1.10;;;;;;;24.82;57.90;100358.36;1526357;94;21168;-81
2022/07/21 12:17:58;;;;;;;2.15;0.70;;;;;;;24.90;58.21;100359.31;1525989;93;26032;-81
2022/07/21 12:20:35;;;;;;;6.00;1.32;;;;;;;24.92;57.51;100360.55;1526654;94;21121;-81
2022/07/21 12:23:19;;;;;;;2.00;0.82;;;;;;;24.92;58.40;100362.52;1485531;94;21129;-81